sensor_id;sensor_type;location;lat;lon;timestamp;pressure;altitude;pressure_sealevel;temperature;humidity
76126;BME280;65174;48.138;21.002;2023-07-30T00:02:33;98916.94;;;19.98;97.73
76126;BME280;65174;48.138;21.002;2023-07-30T00:05:35;98897.28;;;19.94;97.36
76126;BME280;65174;48.138;21.002;2023-07-30T00:08:37;98905.91;;;19.72;99.13
76126;BME280;65174;48.138;21.002;2023-07-30T00:11:39;98906.22;;;19.77;99.49
76126;BME280;65174;48.138;21.002;2023-07-30T00:14:42;98896.09;;;19.66;98.83
76126;BME280;65174;48.138;21.002;2023-07-30T00:17:44;98899.56;;;19.50;98.55
76126;BME280;65174;48.138;21.002;2023-07-30T00:20:46;98908.84;;;19.69;98.60
76126;BME280;65174;48.138;21.002;2023-07-30T00:23:48;98908.66;;;19.78;97.51
76126;BME280;65174;48.138;21.002;2023-07-30T00:26:50;98898.13;;;19.95;97.39
76126;BME280;65174;48.138;21.002;2023-07-30T00:29:52;98906.16;;;19.93;97.58
76126;BME280;65174;48.138;21.002;2023-07-30T00:32:54;98904.63;;;19.99;97.48
76126;BME280;65174;48.138;21.002;2023-07-30T00:35:56;98899.31;;;19.84;98.87
76126;BME280;65174;48.138;21.002;2023-07-30T00:38:58;98895.59;;;19.70;100.00
76126;BME280;65174;48.138;21.002;2023-07-30T00:42:00;98900.53;;;19.65;100.00
76126;BME280;65174;48.138;21.002;2023-07-30T00:45:03;98893.31;;;19.67;100.00
76126;BME280;65174;48.138;21.002;2023-07-30T00:48:05;98894.94;;;19.76;100.00
76126;BME280;65174;48.138;21.002;2023-07-30T00:51:07;98899.81;;;19.79;100.00
76126;BME280;65174;48.138;21.002;2023-07-30T00:54:11;98889.63;;;19.93;99.30
76126;BME280;65174;48.138;21.002;2023-07-30T00:57:14;98891.09;;;19.95;98.71
76126;BME280;65174;48.138;21.002;2023-07-30T01:00:17;98895.00;;;19.99;99.34
76126;BME280;65174;48.138;21.002;2023-07-30T01:03:19;98889.25;;;20.04;99.12
76126;BME280;65174;48.138;21.002;2023-07-30T01:06:21;98891.19;;;20.10;98.60
76126;BME280;65174;48.138;21.002;2023-07-30T01:09:23;98890.50;;;20.16;98.14
76126;BME280;65174;48.138;21.002;2023-07-30T01:12:26;98887.91;;;20.08;98.14
76126;BME280;65174;48.138;21.002;2023-07-30T01:15:31;98902.75;;;20.15;97.99
76126;BME280;65174;48.138;21.002;2023-07-30T01:18:33;98898.31;;;20.24;97.47
76126;BME280;65174;48.138;21.002;2023-07-30T01:21:36;98906.19;;;20.24;97.30
76126;BME280;65174;48.138;21.002;2023-07-30T01:24:38;98903.59;;;20.16;97.56
76126;BME280;65174;48.138;21.002;2023-07-30T01:27:45;98899.34;;;20.23;97.42
76126;BME280;65174;48.138;21.002;2023-07-30T01:30:49;98902.53;;;20.33;96.59
76126;BME280;65174;48.138;21.002;2023-07-30T01:33:54;98880.31;;;20.29;96.30
76126;BME280;65174;48.138;21.002;2023-07-30T01:36:57;98877.75;;;20.21;96.70
76126;BME280;65174;48.138;21.002;2023-07-30T01:39:59;98875.88;;;19.91;98.25
76126;BME280;65174;48.138;21.002;2023-07-30T01:43:02;98871.44;;;19.99;97.79
76126;BME280;65174;48.138;21.002;2023-07-30T01:46:04;98865.72;;;19.96;96.99
76126;BME280;65174;48.138;21.002;2023-07-30T01:49:06;98865.41;;;19.91;96.99
76126;BME280;65174;48.138;21.002;2023-07-30T01:52:08;98870.00;;;19.89;97.33
76126;BME280;65174;48.138;21.002;2023-07-30T01:55:10;98864.25;;;19.93;97.03
76126;BME280;65174;48.138;21.002;2023-07-30T01:58:12;98852.03;;;19.86;97.10
76126;BME280;65174;48.138;21.002;2023-07-30T02:01:15;98848.56;;;19.93;96.95
76126;BME280;65174;48.138;21.002;2023-07-30T02:04:17;98848.38;;;19.95;96.78
76126;BME280;65174;48.138;21.002;2023-07-30T02:07:19;98852.97;;;19.93;96.98
76126;BME280;65174;48.138;21.002;2023-07-30T02:10:21;98866.06;;;19.93;97.29
76126;BME280;65174;48.138;21.002;2023-07-30T02:13:24;98873.44;;;19.89;97.46
76126;BME280;65174;48.138;21.002;2023-07-30T02:16:26;98875.25;;;19.89;98.55
76126;BME280;65174;48.138;21.002;2023-07-30T02:19:28;98871.94;;;19.95;99.44
76126;BME280;65174;48.138;21.002;2023-07-30T02:22:30;98866.31;;;20.06;97.53
76126;BME280;65174;48.138;21.002;2023-07-30T02:25:32;98864.13;;;19.87;97.42
76126;BME280;65174;48.138;21.002;2023-07-30T02:28:34;98856.97;;;19.80;97.66
76126;BME280;65174;48.138;21.002;2023-07-30T02:31:35;98857.19;;;19.71;98.07
76126;BME280;65174;48.138;21.002;2023-07-30T02:34:38;98861.72;;;19.77;98.60
76126;BME280;65174;48.138;21.002;2023-07-30T02:37:40;98869.22;;;19.80;98.82
76126;BME280;65174;48.138;21.002;2023-07-30T02:40:42;98872.47;;;19.82;98.20
76126;BME280;65174;48.138;21.002;2023-07-30T02:47:20;98866.75;;;19.87;97.52
76126;BME280;65174;48.138;21.002;2023-07-30T02:50:22;98861.31;;;19.88;97.80
76126;BME280;65174;48.138;21.002;2023-07-30T02:53:23;98867.38;;;19.89;98.44
76126;BME280;65174;48.138;21.002;2023-07-30T02:56:25;98872.13;;;19.93;98.54
76126;BME280;65174;48.138;21.002;2023-07-30T02:59:27;98859.84;;;19.94;98.12
76126;BME280;65174;48.138;21.002;2023-07-30T03:02:29;98865.38;;;19.99;97.46
76126;BME280;65174;48.138;21.002;2023-07-30T03:05:32;98864.81;;;19.80;97.79
76126;BME280;65174;48.138;21.002;2023-07-30T03:08:34;98873.69;;;19.63;99.58
76126;BME280;65174;48.138;21.002;2023-07-30T03:11:37;98866.50;;;19.65;98.81
76126;BME280;65174;48.138;21.002;2023-07-30T03:14:40;98874.06;;;19.60;98.93
76126;BME280;65174;48.138;21.002;2023-07-30T03:17:42;98861.94;;;19.59;99.01
76126;BME280;65174;48.138;21.002;2023-07-30T03:20:44;98869.63;;;19.61;98.61
76126;BME280;65174;48.138;21.002;2023-07-30T03:23:46;98864.88;;;19.64;98.38
76126;BME280;65174;48.138;21.002;2023-07-30T03:26:50;98869.47;;;19.62;99.18
76126;BME280;65174;48.138;21.002;2023-07-30T03:29:53;98873.38;;;19.66;99.40
76126;BME280;65174;48.138;21.002;2023-07-30T03:32:54;98875.69;;;19.61;98.63
76126;BME280;65174;48.138;21.002;2023-07-30T03:35:56;98877.00;;;19.57;99.03
76126;BME280;65174;48.138;21.002;2023-07-30T03:38:58;98886.59;;;19.65;98.41
76126;BME280;65174;48.138;21.002;2023-07-30T03:42:00;98894.63;;;19.63;98.80
76126;BME280;65174;48.138;21.002;2023-07-30T03:45:48;98885.78;;;19.72;99.02
76126;BME280;65174;48.138;21.002;2023-07-30T03:48:50;98890.06;;;19.65;99.21
76126;BME280;65174;48.138;21.002;2023-07-30T03:51:52;98892.81;;;19.72;98.91
76126;BME280;65174;48.138;21.002;2023-07-30T03:54:54;98889.53;;;19.70;98.48
76126;BME280;65174;48.138;21.002;2023-07-30T03:57:56;98893.63;;;19.72;98.42
76126;BME280;65174;48.138;21.002;2023-07-30T04:01:00;98887.91;;;19.69;97.94
76126;BME280;65174;48.138;21.002;2023-07-30T04:04:03;98893.91;;;19.86;96.80
76126;BME280;65174;48.138;21.002;2023-07-30T04:07:05;98888.19;;;19.82;96.96
76126;BME280;65174;48.138;21.002;2023-07-30T04:10:07;98879.50;;;19.90;95.78
76126;BME280;65174;48.138;21.002;2023-07-30T04:13:10;98878.03;;;19.87;96.14
76126;BME280;65174;48.138;21.002;2023-07-30T04:16:12;98878.31;;;20.00;96.04
76126;BME280;65174;48.138;21.002;2023-07-30T04:19:14;98864.03;;;20.03;95.31
76126;BME280;65174;48.138;21.002;2023-07-30T04:22:16;98858.88;;;20.17;94.79
76126;BME280;65174;48.138;21.002;2023-07-30T04:25:18;98858.34;;;20.30;91.76
76126;BME280;65174;48.138;21.002;2023-07-30T04:28:20;98864.66;;;20.66;88.87
76126;BME280;65174;48.138;21.002;2023-07-30T04:31:22;98857.94;;;21.09;nan
76126;BME280;65174;48.138;21.002;2023-07-30T04:34:24;98849.03;;;20.73;86.07
76126;BME280;65174;48.138;21.002;2023-07-30T04:37:26;98842.97;;;21.09;84.40
76126;BME280;65174;48.138;21.002;2023-07-30T04:40:29;98846.81;;;21.21;85.74
76126;BME280;65174;48.138;21.002;2023-07-30T04:43:31;98848.94;;;21.76;82.60
76126;BME280;65174;48.138;21.002;2023-07-30T04:46:33;98855.59;;;21.87;81.53
76126;BME280;65174;48.138;21.002;2023-07-30T04:49:36;98855.03;;;21.62;82.85
76126;BME280;65174;48.138;21.002;2023-07-30T04:52:39;98865.28;;;21.43;83.59
76126;BME280;65174;48.138;21.002;2023-07-30T04:55:41;98872.34;;;21.42;83.68
76126;BME280;65174;48.138;21.002;2023-07-30T04:58:43;98877.19;;;20.93;85.00
76126;BME280;65174;48.138;21.002;2023-07-30T05:01:45;98875.09;;;21.11;84.11
76126;BME280;65174;48.138;21.002;2023-07-30T05:04:47;98882.28;;;21.17;83.44
76126;BME280;65174;48.138;21.002;2023-07-30T05:07:49;98873.16;;;21.28;83.74
76126;BME280;65174;48.138;21.002;2023-07-30T05:10:51;98873.78;;;21.45;82.39
76126;BME280;65174;48.138;21.002;2023-07-30T05:13:53;98887.56;;;21.09;83.82
76126;BME280;65174;48.138;21.002;2023-07-30T05:16:55;98887.56;;;21.61;82.49
76126;BME280;65174;48.138;21.002;2023-07-30T05:19:57;98898.69;;;21.63;82.25
76126;BME280;65174;48.138;21.002;2023-07-30T05:22:59;98879.81;;;21.30;82.99
76126;BME280;65174;48.138;21.002;2023-07-30T05:26:01;98892.16;;;21.30;83.41
76126;BME280;65174;48.138;21.002;2023-07-30T05:29:03;98884.25;;;21.15;84.47
76126;BME280;65174;48.138;21.002;2023-07-30T05:32:05;98883.63;;;21.13;82.88
76126;BME280;65174;48.138;21.002;2023-07-30T05:35:07;98900.16;;;21.14;82.86
76126;BME280;65174;48.138;21.002;2023-07-30T05:38:09;98907.53;;;21.33;82.70
76126;BME280;65174;48.138;21.002;2023-07-30T05:41:11;98926.00;;;21.54;80.31
76126;BME280;65174;48.138;21.002;2023-07-30T05:44:13;98932.06;;;21.55;80.69
76126;BME280;65174;48.138;21.002;2023-07-30T05:47:15;98922.56;;;21.54;80.82
76126;BME280;65174;48.138;21.002;2023-07-30T05:50:17;98922.19;;;21.42;82.69
76126;BME280;65174;48.138;21.002;2023-07-30T05:53:19;98918.66;;;21.79;80.54
76126;BME280;65174;48.138;21.002;2023-07-30T05:56:21;98917.06;;;21.78;79.92
76126;BME280;65174;48.138;21.002;2023-07-30T05:59:23;98912.69;;;22.29;78.13
76126;BME280;65174;48.138;21.002;2023-07-30T06:02:25;98907.16;;;22.59;76.08
76126;BME280;65174;48.138;21.002;2023-07-30T06:05:27;98909.00;;;22.44;77.20
76126;BME280;65174;48.138;21.002;2023-07-30T06:08:28;98912.44;;;22.59;75.33
76126;BME280;65174;48.138;21.002;2023-07-30T06:11:31;98907.00;;;22.46;76.62
76126;BME280;65174;48.138;21.002;2023-07-30T06:14:33;98902.34;;;22.27;76.66
76126;BME280;65174;48.138;21.002;2023-07-30T06:17:35;98896.03;;;22.22;76.84
76126;BME280;65174;48.138;21.002;2023-07-30T06:20:37;98903.94;;;22.07;77.39
76126;BME280;65174;48.138;21.002;2023-07-30T06:23:39;98895.59;;;21.89;77.99
76126;BME280;65174;48.138;21.002;2023-07-30T06:26:41;98908.56;;;22.05;77.90
76126;BME280;65174;48.138;21.002;2023-07-30T06:29:43;98919.97;;;21.83;79.32
76126;BME280;65174;48.138;21.002;2023-07-30T06:32:45;98917.94;;;21.56;80.35
76126;BME280;65174;48.138;21.002;2023-07-30T06:35:47;98928.09;;;21.59;80.84
76126;BME280;65174;48.138;21.002;2023-07-30T06:38:49;98931.69;;;21.58;80.68
76126;BME280;65174;48.138;21.002;2023-07-30T06:41:51;98933.34;;;21.44;81.72
76126;BME280;65174;48.138;21.002;2023-07-30T06:44:54;98933.00;;;21.24;83.27
76126;BME280;65174;48.138;21.002;2023-07-30T06:47:56;98927.38;;;20.90;84.96
76126;BME280;65174;48.138;21.002;2023-07-30T06:50:58;98937.59;;;21.08;84.01
76126;BME280;65174;48.138;21.002;2023-07-30T06:54:00;98939.06;;;21.10;84.20
76126;BME280;65174;48.138;21.002;2023-07-30T06:57:02;98925.41;;;21.15;83.83
76126;BME280;65174;48.138;21.002;2023-07-30T07:00:05;98927.75;;;21.24;83.50
76126;BME280;65174;48.138;21.002;2023-07-30T07:03:07;98928.47;;;21.18;84.03
76126;BME280;65174;48.138;21.002;2023-07-30T07:06:10;98926.56;;;21.12;84.13
76126;BME280;65174;48.138;21.002;2023-07-30T07:09:11;98916.03;;;21.35;83.43
76126;BME280;65174;48.138;21.002;2023-07-30T07:12:13;98911.91;;;21.55;82.68
76126;BME280;65174;48.138;21.002;2023-07-30T07:15:15;98912.88;;;21.54;81.69
76126;BME280;65174;48.138;21.002;2023-07-30T07:18:17;98905.09;;;21.61;81.74
76126;BME280;65174;48.138;21.002;2023-07-30T07:21:19;98907.91;;;21.74;81.18
76126;BME280;65174;48.138;21.002;2023-07-30T07:24:22;98911.75;;;21.86;80.22
76126;BME280;65174;48.138;21.002;2023-07-30T07:27:24;98895.81;;;22.23;78.28
76126;BME280;65174;48.138;21.002;2023-07-30T07:30:26;98888.94;;;22.58;76.89
76126;BME280;65174;48.138;21.002;2023-07-30T07:33:28;98878.66;;;22.84;75.56
76126;BME280;65174;48.138;21.002;2023-07-30T07:36:30;98881.81;;;23.22;74.38
76126;BME280;65174;48.138;21.002;2023-07-30T07:39:32;98886.28;;;23.28;75.44
76126;BME280;65174;48.138;21.002;2023-07-30T07:42:35;98883.00;;;23.19;74.80
76126;BME280;65174;48.138;21.002;2023-07-30T07:45:37;98876.00;;;23.05;74.13
76126;BME280;65174;48.138;21.002;2023-07-30T07:48:43;98875.28;;;22.90;74.81
76126;BME280;65174;48.138;21.002;2023-07-30T07:51:45;98878.41;;;22.79;76.36
76126;BME280;65174;48.138;21.002;2023-07-30T07:54:47;98888.34;;;22.41;77.65
76126;BME280;65174;48.138;21.002;2023-07-30T07:57:49;98886.59;;;22.48;78.29
76126;BME280;65174;48.138;21.002;2023-07-30T08:00:54;98894.41;;;22.42;79.14
76126;BME280;65174;48.138;21.002;2023-07-30T08:03:56;98910.50;;;22.32;79.50
76126;BME280;65174;48.138;21.002;2023-07-30T08:06:58;98906.63;;;22.13;81.20
76126;BME280;65174;48.138;21.002;2023-07-30T08:10:05;98920.97;;;21.96;81.88
76126;BME280;65174;48.138;21.002;2023-07-30T08:13:07;98909.00;;;21.94;81.42
76126;BME280;65174;48.138;21.002;2023-07-30T08:16:09;98914.66;;;21.91;82.20
76126;BME280;65174;48.138;21.002;2023-07-30T08:19:11;98915.97;;;22.01;81.77
76126;BME280;65174;48.138;21.002;2023-07-30T08:22:13;98925.75;;;22.22;81.55
76126;BME280;65174;48.138;21.002;2023-07-30T08:25:15;98923.59;;;22.47;80.41
76126;BME280;65174;48.138;21.002;2023-07-30T08:28:17;98917.28;;;22.62;79.61
76126;BME280;65174;48.138;21.002;2023-07-30T08:31:19;98933.25;;;22.61;78.88
76126;BME280;65174;48.138;21.002;2023-07-30T08:34:22;98937.47;;;22.41;79.43
76126;BME280;65174;48.138;21.002;2023-07-30T08:37:24;98937.59;;;22.54;79.30
76126;BME280;65174;48.138;21.002;2023-07-30T08:40:26;98939.41;;;22.68;78.78
76126;BME280;65174;48.138;21.002;2023-07-30T08:43:29;98935.34;;;22.65;78.59
76126;BME280;65174;48.138;21.002;2023-07-30T08:46:31;98927.81;;;22.62;78.76
76126;BME280;65174;48.138;21.002;2023-07-30T08:49:33;98922.25;;;22.72;79.44
76126;BME280;65174;48.138;21.002;2023-07-30T08:52:36;98923.09;;;22.58;77.18
76126;BME280;65174;48.138;21.002;2023-07-30T08:55:40;98917.91;;;22.64;78.58
76126;BME280;65174;48.138;21.002;2023-07-30T08:58:43;98915.69;;;22.61;78.47
76126;BME280;65174;48.138;21.002;2023-07-30T09:01:47;98908.63;;;22.47;78.53
76126;BME280;65174;48.138;21.002;2023-07-30T09:04:53;98918.28;;;22.26;80.07
76126;BME280;65174;48.138;21.002;2023-07-30T09:07:57;98923.44;;;22.34;80.07
76126;BME280;65174;48.138;21.002;2023-07-30T09:11:09;98923.63;;;22.32;80.14
76126;BME280;65174;48.138;21.002;2023-07-30T09:14:12;98920.31;;;22.09;81.96
76126;BME280;65174;48.138;21.002;2023-07-30T09:17:17;98909.22;;;22.28;80.80
76126;BME280;65174;48.138;21.002;2023-07-30T09:20:20;98922.53;;;22.27;80.96
76126;BME280;65174;48.138;21.002;2023-07-30T09:23:21;98923.06;;;22.37;80.13
76126;BME280;65174;48.138;21.002;2023-07-30T09:26:23;98921.94;;;22.60;80.34
76126;BME280;65174;48.138;21.002;2023-07-30T09:29:25;98931.00;;;22.79;78.92
76126;BME280;65174;48.138;21.002;2023-07-30T09:32:28;98942.41;;;22.86;79.42
76126;BME280;65174;48.138;21.002;2023-07-30T09:35:32;98939.03;;;22.71;80.64
76126;BME280;65174;48.138;21.002;2023-07-30T09:38:44;98941.38;;;22.80;79.54
76126;BME280;65174;48.138;21.002;2023-07-30T09:41:48;98957.84;;;22.89;80.67
76126;BME280;65174;48.138;21.002;2023-07-30T09:44:50;98974.69;;;22.95;81.69
76126;BME280;65174;48.138;21.002;2023-07-30T09:47:54;98970.78;;;22.90;80.79
76126;BME280;65174;48.138;21.002;2023-07-30T09:51:02;98968.72;;;22.86;83.16
76126;BME280;65174;48.138;21.002;2023-07-30T09:54:10;98970.28;;;22.59;84.89
76126;BME280;65174;48.138;21.002;2023-07-30T09:57:12;98968.16;;;22.55;83.14
76126;BME280;65174;48.138;21.002;2023-07-30T10:00:14;98970.69;;;22.63;82.82
76126;BME280;65174;48.138;21.002;2023-07-30T10:03:17;98984.81;;;22.76;83.15
76126;BME280;65174;48.138;21.002;2023-07-30T10:06:19;98988.03;;;22.93;84.40
76126;BME280;65174;48.138;21.002;2023-07-30T10:09:22;98992.47;;;22.92;81.42
76126;BME280;65174;48.138;21.002;2023-07-30T10:12:32;98997.03;;;22.84;81.09
76126;BME280;65174;48.138;21.002;2023-07-30T10:15:39;98993.69;;;22.75;81.22
76126;BME280;65174;48.138;21.002;2023-07-30T10:18:43;98996.38;;;22.61;82.52
76126;BME280;65174;48.138;21.002;2023-07-30T10:21:45;98997.28;;;22.53;83.49
76126;BME280;65174;48.138;21.002;2023-07-30T10:25:01;98996.19;;;22.48;85.19
76126;BME280;65174;48.138;21.002;2023-07-30T10:28:04;98998.25;;;22.52;85.82
76126;BME280;65174;48.138;21.002;2023-07-30T10:31:07;98998.06;;;22.54;85.85
76126;BME280;65174;48.138;21.002;2023-07-30T10:34:10;98991.81;;;22.55;86.57
76126;BME280;65174;48.138;21.002;2023-07-30T10:37:20;98983.59;;;22.58;83.61
76126;BME280;65174;48.138;21.002;2023-07-30T10:40:22;98981.31;;;22.55;83.13
76126;BME280;65174;48.138;21.002;2023-07-30T10:43:30;98985.38;;;22.57;84.82
76126;BME280;65174;48.138;21.002;2023-07-30T10:46:32;98992.91;;;22.60;84.16
76126;BME280;65174;48.138;21.002;2023-07-30T10:49:38;99006.25;;;22.59;84.53
76126;BME280;65174;48.138;21.002;2023-07-30T10:52:42;99017.03;;;22.49;85.96
76126;BME280;65174;48.138;21.002;2023-07-30T10:55:45;99024.13;;;22.34;86.69
76126;BME280;65174;48.138;21.002;2023-07-30T10:58:51;99027.59;;;22.20;87.36
76126;BME280;65174;48.138;21.002;2023-07-30T11:01:54;99025.31;;;22.02;89.63
76126;BME280;65174;48.138;21.002;2023-07-30T11:04:56;99005.09;;;21.88;89.57
76126;BME280;65174;48.138;21.002;2023-07-30T11:07:58;99002.44;;;21.74;91.06
76126;BME280;65174;48.138;21.002;2023-07-30T11:11:01;99013.72;;;21.74;92.12
76126;BME280;65174;48.138;21.002;2023-07-30T11:14:03;99018.72;;;21.69;91.36
76126;BME280;65174;48.138;21.002;2023-07-30T11:17:05;99007.41;;;21.69;91.01
76126;BME280;65174;48.138;21.002;2023-07-30T11:20:08;99013.66;;;21.68;92.19
76126;BME280;65174;48.138;21.002;2023-07-30T11:23:23;99005.31;;;21.64;92.56
76126;BME280;65174;48.138;21.002;2023-07-30T11:26:25;98992.19;;;21.64;92.89
76126;BME280;65174;48.138;21.002;2023-07-30T11:29:27;98988.28;;;21.60;94.10
76126;BME280;65174;48.138;21.002;2023-07-30T11:36:22;98992.44;;;21.92;94.59
76126;BME280;65174;48.138;21.002;2023-07-30T11:39:24;99000.69;;;22.03;94.25
76126;BME280;65174;48.138;21.002;2023-07-30T11:42:26;98994.69;;;22.09;93.51
76126;BME280;65174;48.138;21.002;2023-07-30T11:45:31;99008.47;;;22.11;94.33
76126;BME280;65174;48.138;21.002;2023-07-30T11:48:34;99003.13;;;22.05;94.25
76126;BME280;65174;48.138;21.002;2023-07-30T11:51:37;98998.41;;;22.00;92.29
76126;BME280;65174;48.138;21.002;2023-07-30T11:54:39;98990.81;;;21.91;90.13
76126;BME280;65174;48.138;21.002;2023-07-30T11:57:41;99004.63;;;21.99;92.27
76126;BME280;65174;48.138;21.002;2023-07-30T12:00:43;99000.84;;;22.02;91.69
76126;BME280;65174;48.138;21.002;2023-07-30T12:03:45;99012.06;;;22.10;92.25
76126;BME280;65174;48.138;21.002;2023-07-30T12:06:48;99000.69;;;22.03;88.58
76126;BME280;65174;48.138;21.002;2023-07-30T12:09:51;98989.25;;;21.96;87.35
76126;BME280;65174;48.138;21.002;2023-07-30T12:12:53;98989.69;;;21.85;86.97
76126;BME280;65174;48.138;21.002;2023-07-30T12:15:56;98985.50;;;21.76;86.04
76126;BME280;65174;48.138;21.002;2023-07-30T12:18:58;98981.97;;;21.69;86.41
76126;BME280;65174;48.138;21.002;2023-07-30T12:22:00;98978.72;;;21.67;86.28
76126;BME280;65174;48.138;21.002;2023-07-30T12:25:02;98974.72;;;21.71;87.88
76126;BME280;65174;48.138;21.002;2023-07-30T12:28:07;98979.16;;;21.71;89.10
76126;BME280;65174;48.138;21.002;2023-07-30T12:31:09;98972.97;;;21.64;87.35
76126;BME280;65174;48.138;21.002;2023-07-30T12:34:12;98971.38;;;21.63;87.09
76126;BME280;65174;48.138;21.002;2023-07-30T12:37:14;98977.78;;;21.60;87.87
76126;BME280;65174;48.138;21.002;2023-07-30T12:40:16;98986.28;;;21.62;89.00
76126;BME280;65174;48.138;21.002;2023-07-30T12:43:18;98980.22;;;21.62;88.24
76126;BME280;65174;48.138;21.002;2023-07-30T12:46:22;98981.03;;;21.62;87.25
76126;BME280;65174;48.138;21.002;2023-07-30T12:49:24;98977.53;;;21.55;86.32
76126;BME280;65174;48.138;21.002;2023-07-30T12:52:26;98977.69;;;21.54;86.83
76126;BME280;65174;48.138;21.002;2023-07-30T12:55:28;98974.06;;;21.55;87.19
76126;BME280;65174;48.138;21.002;2023-07-30T12:58:30;98974.06;;;21.55;88.11
76126;BME280;65174;48.138;21.002;2023-07-30T13:01:32;98971.25;;;21.56;87.68
76126;BME280;65174;48.138;21.002;2023-07-30T13:04:34;98961.59;;;21.57;87.08
76126;BME280;65174;48.138;21.002;2023-07-30T13:07:36;98952.69;;;21.58;85.10
76126;BME280;65174;48.138;21.002;2023-07-30T13:10:38;98964.03;;;21.58;87.08
76126;BME280;65174;48.138;21.002;2023-07-30T13:13:40;98955.16;;;21.59;87.29
76126;BME280;65174;48.138;21.002;2023-07-30T13:16:42;98961.31;;;21.66;86.06
76126;BME280;65174;48.138;21.002;2023-07-30T13:19:44;98960.59;;;21.72;86.81
76126;BME280;65174;48.138;21.002;2023-07-30T13:22:46;98950.66;;;21.68;85.69
76126;BME280;65174;48.138;21.002;2023-07-30T13:25:49;98938.41;;;21.60;87.18
76126;BME280;65174;48.138;21.002;2023-07-30T13:28:51;98934.50;;;21.56;85.79
76126;BME280;65174;48.138;21.002;2023-07-30T13:31:53;98906.38;;;21.65;85.87
76126;BME280;65174;48.138;21.002;2023-07-30T13:34:55;98895.88;;;21.65;83.97
76126;BME280;65174;48.138;21.002;2023-07-30T13:37:57;98887.66;;;21.82;83.90
76126;BME280;65174;48.138;21.002;2023-07-30T13:40:59;98874.97;;;21.86;76.24
76126;BME280;65174;48.138;21.002;2023-07-30T13:44:01;98878.75;;;21.98;75.05
76126;BME280;65174;48.138;21.002;2023-07-30T13:47:36;98863.28;;;22.03;75.11
76126;BME280;65174;48.138;21.002;2023-07-30T13:50:38;98863.78;;;22.13;76.47
76126;BME280;65174;48.138;21.002;2023-07-30T13:53:40;98861.16;;;22.13;75.54
76126;BME280;65174;48.138;21.002;2023-07-30T13:56:43;98853.28;;;22.13;73.33
76126;BME280;65174;48.138;21.002;2023-07-30T13:59:45;98850.28;;;22.01;73.01
76126;BME280;65174;48.138;21.002;2023-07-30T14:02:46;98846.75;;;22.09;72.26
76126;BME280;65174;48.138;21.002;2023-07-30T14:05:49;98837.16;;;22.16;74.20
76126;BME280;65174;48.138;21.002;2023-07-30T14:08:51;98838.44;;;22.27;73.88
76126;BME280;65174;48.138;21.002;2023-07-30T14:11:53;98835.47;;;22.30;74.71
76126;BME280;65174;48.138;21.002;2023-07-30T14:14:55;98835.59;;;22.22;75.42
76126;BME280;65174;48.138;21.002;2023-07-30T14:17:57;98830.41;;;22.28;75.55
76126;BME280;65174;48.138;21.002;2023-07-30T14:20:59;98832.22;;;22.28;72.09
76126;BME280;65174;48.138;21.002;2023-07-30T14:24:01;98828.94;;;22.26;75.22
76126;BME280;65174;48.138;21.002;2023-07-30T14:27:03;98810.50;;;22.19;73.43
76126;BME280;65174;48.138;21.002;2023-07-30T14:30:06;98807.44;;;22.16;74.91
76126;BME280;65174;48.138;21.002;2023-07-30T14:33:08;98796.19;;;21.86;76.47
76126;BME280;65174;48.138;21.002;2023-07-30T14:36:10;98796.63;;;21.75;77.79
76126;BME280;65174;48.138;21.002;2023-07-30T14:39:13;98791.31;;;21.83;77.73
76126;BME280;65174;48.138;21.002;2023-07-30T14:42:15;98785.97;;;21.91;77.99
76126;BME280;65174;48.138;21.002;2023-07-30T14:45:17;98790.81;;;21.94;78.85
76126;BME280;65174;48.138;21.002;2023-07-30T14:48:19;98781.56;;;21.98;77.37
76126;BME280;65174;48.138;21.002;2023-07-30T14:51:21;98788.53;;;22.05;79.32
76126;BME280;65174;48.138;21.002;2023-07-30T14:54:23;98792.81;;;21.92;77.60
76126;BME280;65174;48.138;21.002;2023-07-30T14:57:25;98796.97;;;22.01;75.91
76126;BME280;65174;48.138;21.002;2023-07-30T15:00:27;98791.25;;;21.97;76.87
76126;BME280;65174;48.138;21.002;2023-07-30T15:03:29;98795.22;;;22.08;77.80
76126;BME280;65174;48.138;21.002;2023-07-30T15:06:31;98798.00;;;21.85;79.84
76126;BME280;65174;48.138;21.002;2023-07-30T15:09:33;98808.09;;;22.03;80.91
76126;BME280;65174;48.138;21.002;2023-07-30T15:12:36;98812.53;;;22.02;80.85
76126;BME280;65174;48.138;21.002;2023-07-30T15:15:38;98809.34;;;22.07;81.59
76126;BME280;65174;48.138;21.002;2023-07-30T15:18:43;98816.13;;;22.16;81.80
76126;BME280;65174;48.138;21.002;2023-07-30T15:21:45;98821.78;;;21.98;80.35
76126;BME280;65174;48.138;21.002;2023-07-30T15:24:47;98833.13;;;21.99;82.09
76126;BME280;65174;48.138;21.002;2023-07-30T15:27:49;98842.25;;;22.03;82.23
76126;BME280;65174;48.138;21.002;2023-07-30T15:30:51;98840.19;;;21.98;82.13
76126;BME280;65174;48.138;21.002;2023-07-30T15:33:53;98834.03;;;21.91;83.39
76126;BME280;65174;48.138;21.002;2023-07-30T15:36:56;98836.56;;;21.85;83.68
76126;BME280;65174;48.138;21.002;2023-07-30T15:39:58;98810.91;;;22.01;83.73
76126;BME280;65174;48.138;21.002;2023-07-30T15:43:03;98815.19;;;22.24;83.04
76126;BME280;65174;48.138;21.002;2023-07-30T15:46:06;98803.66;;;22.25;81.58
76126;BME280;65174;48.138;21.002;2023-07-30T15:49:08;98807.38;;;22.30;81.47
76126;BME280;65174;48.138;21.002;2023-07-30T15:52:10;98814.38;;;22.44;80.76
76126;BME280;65174;48.138;21.002;2023-07-30T15:55:12;98820.28;;;22.67;76.99
76126;BME280;65174;48.138;21.002;2023-07-30T15:58:15;98809.75;;;22.25;74.90
76126;BME280;65174;48.138;21.002;2023-07-30T16:01:17;98806.91;;;22.48;76.30
76126;BME280;65174;48.138;21.002;2023-07-30T16:04:19;98809.34;;;22.64;74.13